Time;durP1;ratioP1;P1;durP2;ratioP2;P2;SDS_P1;SDS_P2;PMS_P1;PMS_P2;Temp;Humidity;BMP_temperature;BMP_pressure;BME280_temperature;BME280_humidity;BME280_pressure;Samples;Min_cycle;Max_cycle;Signal;HPM_P1;HPM_P2
2021/03/07 00:00:25;;;;;;;12.75;2.78;;;3.70;85.10;;;;;;5052478;28;20040;-57
2021/03/07 00:02:52;;;;;;;9.35;2.92;;;3.70;85.20;;;;;;5069520;28;20139;-56
2021/03/07 00:05:18;;;;;;;9.77;3.58;;;3.70;85.10;;;;;;5064563;28;20068;-57
2021/03/07 00:07:48;;;;;;;8.70;3.63;;;3.70;85.20;;;;;;5057745;28;20059;-58
2021/03/07 00:10:20;;;;;;;6.85;2.50;;;3.60;85.10;;;;;;5059294;28;20048;-55
2021/03/07 00:12:47;;;;;;;8.07;2.60;;;3.60;85.20;;;;;;5072767;28;20428;-57
2021/03/07 00:15:14;;;;;;;11.00;2.80;;;3.70;85.30;;;;;;5072973;28;20461;-57
2021/03/07 00:17:41;;;;;;;9.00;3.13;;;3.70;85.40;;;;;;5073374;28;20076;-58
2021/03/07 00:20:09;;;;;;;7.40;3.08;;;3.60;85.50;;;;;;5072374;28;20052;-57
2021/03/07 00:22:35;;;;;;;6.78;3.03;;;3.60;85.50;;;;;;5069510;28;20071;-58
2021/03/07 00:25:01;;;;;;;5.20;2.67;;;3.50;85.60;;;;;;5064883;28;20166;-58
2021/03/07 00:27:26;;;;;;;7.05;3.20;;;3.50;85.90;;;;;;5072876;28;20496;-57
2021/03/07 00:29:52;;;;;;;6.85;2.90;;;3.40;85.80;;;;;;5075271;28;20036;-57
2021/03/07 00:32:25;;;;;;;10.40;3.30;;;3.40;85.90;;;;;;5069862;28;20094;-56
2021/03/07 00:34:51;;;;;;;9.70;3.53;;;3.30;86.10;;;;;;5073930;28;20382;-57
2021/03/07 00:37:17;;;;;;;8.95;3.08;;;3.30;86.30;;;;;;5072098;28;20090;-57
2021/03/07 00:39:42;;;;;;;8.13;3.17;;;3.20;86.30;;;;;;5073045;28;20111;-57
2021/03/07 00:42:08;;;;;;;8.75;3.03;;;3.10;86.40;;;;;;5072700;28;20063;-56
2021/03/07 00:44:34;;;;;;;9.45;3.08;;;3.00;86.60;;;;;;5077538;28;20123;-57
2021/03/07 00:46:59;;;;;;;8.95;3.20;;;3.00;86.80;;;;;;5088434;28;20051;-57
2021/03/07 00:49:30;;;;;;;9.50;3.35;;;2.90;86.90;;;;;;5068140;28;20045;-57
2021/03/07 00:51:57;;;;;;;10.38;3.35;;;2.90;87.00;;;;;;5074860;28;20078;-56
2021/03/07 00:54:23;;;;;;;6.70;2.53;;;2.80;87.00;;;;;;5074673;28;20067;-56
2021/03/07 00:56:48;;;;;;;6.78;2.88;;;2.70;87.00;;;;;;5072735;28;20098;-56
2021/03/07 00:59:17;;;;;;;9.68;3.25;;;2.70;87.20;;;;;;5075373;28;20036;-57
2021/03/07 01:01:43;;;;;;;7.20;3.45;;;2.60;87.90;;;;;;5075908;28;20044;-57
2021/03/07 01:04:12;;;;;;;7.15;3.28;;;2.60;87.60;;;;;;5073414;28;20059;-57
2021/03/07 01:06:38;;;;;;;8.68;3.35;;;2.60;87.60;;;;;;5069165;28;20485;-57
2021/03/07 01:09:04;;;;;;;9.32;3.20;;;2.50;87.50;;;;;;5054752;28;20059;-56
2021/03/07 01:11:30;;;;;;;7.90;3.05;;;2.50;87.80;;;;;;5064690;28;20049;-56
2021/03/07 01:13:58;;;;;;;7.05;3.17;;;2.40;87.70;;;;;;5071780;28;20044;-57
2021/03/07 01:16:25;;;;;;;8.88;3.30;;;2.30;87.80;;;;;;5069561;28;20094;-56
2021/03/07 01:18:51;;;;;;;11.93;3.58;;;2.30;87.80;;;;;;5075456;28;20036;-53
2021/03/07 01:21:16;;;;;;;9.10;3.40;;;2.20;87.70;;;;;;5072098;28;20463;-52
2021/03/07 01:23:42;;;;;;;12.38;3.30;;;2.10;88.10;;;;;;5075642;28;20393;-54
2021/03/07 01:26:09;;;;;;;8.82;3.15;;;2.00;88.20;;;;;;5067090;28;20048;-51
2021/03/07 01:28:35;;;;;;;8.88;3.53;;;2.00;88.40;;;;;;5074052;28;20036;-54
2021/03/07 01:31:01;;;;;;;6.18;2.97;;;1.90;88.40;;;;;;5074487;28;20044;-53
2021/03/07 01:33:26;;;;;;;9.57;3.38;;;1.90;88.50;;;;;;5072457;28;20045;-54
2021/03/07 01:35:53;;;;;;;11.85;3.70;;;1.80;88.70;;;;;;5065308;28;20046;-51
2021/03/07 01:38:18;;;;;;;9.20;3.13;;;1.80;88.80;;;;;;5073779;28;20036;-51
2021/03/07 01:40:47;;;;;;;11.15;3.50;;;1.70;88.90;;;;;;5071513;28;20068;-54
2021/03/07 01:43:17;;;;;;;7.30;3.30;;;1.70;89.30;;;;;;5072659;28;20025;-51
2021/03/07 01:45:43;;;;;;;8.13;3.60;;;1.70;89.00;;;;;;5078172;28;20189;-54
2021/03/07 01:48:10;;;;;;;7.93;3.30;;;1.70;89.10;;;;;;5067391;28;20551;-51
2021/03/07 01:50:42;;;;;;;7.65;3.20;;;1.60;88.80;;;;;;5070004;28;20152;-54
2021/03/07 01:53:11;;;;;;;10.48;3.20;;;1.60;88.90;;;;;;5066766;28;20481;-55
2021/03/07 01:55:41;;;;;;;6.97;3.30;;;1.50;88.60;;;;;;5070304;28;20071;-54
2021/03/07 01:58:14;;;;;;;7.22;3.10;;;1.40;88.60;;;;;;5069284;28;20025;-54
2021/03/07 02:00:39;;;;;;;9.25;3.33;;;1.40;88.60;;;;;;5068586;28;20127;-54
2021/03/07 02:03:08;;;;;;;8.85;3.13;;;1.40;89.00;;;;;;5067043;28;20132;-51
2021/03/07 02:05:34;;;;;;;6.80;3.30;;;1.40;89.10;;;;;;5069369;28;20063;-54
2021/03/07 02:08:00;;;;;;;10.45;3.30;;;1.30;89.00;;;;;;5067715;28;20493;-54
2021/03/07 02:10:42;;;;;;;7.50;3.40;;;1.20;89.00;;;;;;5071111;28;20075;-55
2021/03/07 02:13:20;;;;;;;8.57;3.30;;;1.10;89.10;;;;;;5069156;28;20147;-54
2021/03/07 02:15:50;;;;;;;9.20;3.35;;;1.10;89.40;;;;;;5066465;28;20394;-53
2021/03/07 02:18:20;;;;;;;6.90;3.10;;;1.00;89.50;;;;;;5070786;28;20553;-55
2021/03/07 02:21:01;;;;;;;6.18;3.15;;;1.00;89.50;;;;;;5071139;28;20476;-53
2021/03/07 02:23:31;;;;;;;5.93;3.03;;;1.00;90.10;;;;;;5066943;28;20074;-54
2021/03/07 02:25:57;;;;;;;8.77;3.33;;;0.90;89.60;;;;;;5071206;28;20048;-53
2021/03/07 02:28:29;;;;;;;7.68;3.40;;;0.90;89.60;;;;;;5067816;28;20033;-54
2021/03/07 02:30:55;;;;;;;7.75;3.10;;;0.80;89.80;;;;;;5065476;28;20064;-56
2021/03/07 02:33:27;;;;;;;6.30;3.30;;;0.80;89.90;;;;;;5066119;28;20037;-55
2021/03/07 02:36:20;;;;;;;5.97;3.27;;;0.70;89.90;;;;;;5070620;28;20040;-52
2021/03/07 02:38:49;;;;;;;9.07;3.40;;;0.70;90.10;;;;;;5064278;28;20398;-53
2021/03/07 02:41:17;;;;;;;6.55;3.40;;;0.70;90.10;;;;;;5079897;28;20381;-54
2021/03/07 02:43:49;;;;;;;7.55;3.58;;;0.60;90.10;;;;;;5065952;28;20413;-56
2021/03/07 02:46:16;;;;;;;11.75;4.10;;;0.60;90.10;;;;;;5073303;28;20036;-56
2021/03/07 02:48:47;;;;;;;7.65;3.88;;;0.60;90.20;;;;;;5079549;28;20044;-57
2021/03/07 02:51:13;;;;;;;16.63;3.90;;;0.60;90.20;;;;;;5072029;28;20028;-57
2021/03/07 02:53:41;;;;;;;7.78;3.83;;;0.50;90.20;;;;;;5074353;28;20612;-57
2021/03/07 02:56:10;;;;;;;9.43;4.03;;;0.50;90.20;;;;;;5066309;28;20099;-57
2021/03/07 02:58:39;;;;;;;8.43;3.47;;;0.50;90.10;;;;;;5067639;28;20032;-57
2021/03/07 03:01:13;;;;;;;8.77;3.70;;;0.40;90.20;;;;;;5080582;28;20028;-52
2021/03/07 03:03:45;;;;;;;8.95;3.80;;;0.40;90.20;;;;;;5068481;28;20500;-51
2021/03/07 03:06:14;;;;;;;10.50;4.25;;;0.40;90.10;;;;;;5064807;28;20846;-52
2021/03/07 03:08:44;;;;;;;11.88;4.32;;;0.30;90.20;;;;;;5066652;28;20056;-53
2021/03/07 03:11:15;;;;;;;11.93;4.72;;;0.30;90.20;;;;;;5071075;28;20043;-55
2021/03/07 03:13:42;;;;;;;12.73;4.93;;;0.30;90.30;;;;;;5067485;28;20045;-53
2021/03/07 03:16:09;;;;;;;8.75;4.32;;;0.30;90.40;;;;;;5069174;28;20484;-51
2021/03/07 03:18:37;;;;;;;13.13;5.22;;;0.40;90.40;;;;;;5068681;28;20323;-57
2021/03/07 03:21:07;;;;;;;9.93;4.30;;;0.40;90.40;;;;;;5069745;28;20036;-55
2021/03/07 03:23:33;;;;;;;13.88;5.07;;;0.40;90.50;;;;;;5069885;28;20408;-52
2021/03/07 03:25:59;;;;;;;8.88;4.25;;;0.50;90.50;;;;;;5070243;28;20047;-53
2021/03/07 03:28:25;;;;;;;12.73;4.68;;;0.50;90.50;;;;;;5067127;28;20032;-55
2021/03/07 03:30:55;;;;;;;9.18;4.43;;;0.60;90.50;;;;;;5069137;28;20035;-54
2021/03/07 03:33:23;;;;;;;11.35;4.85;;;0.60;90.50;;;;;;5070022;28;20044;-55
2021/03/07 03:35:50;;;;;;;12.48;4.85;;;0.70;90.60;;;;;;5069886;28;20040;-56
2021/03/07 03:38:16;;;;;;;12.30;5.05;;;0.80;90.60;;;;;;5070253;28;20040;-52
2021/03/07 03:40:46;;;;;;;9.68;5.30;;;0.90;90.60;;;;;;5073993;28;20049;-53
2021/03/07 03:43:14;;;;;;;11.60;5.30;;;0.90;90.60;;;;;;5069184;28;20036;-55
2021/03/07 03:45:42;;;;;;;12.85;5.20;;;1.00;90.70;;;;;;5074030;28;20067;-54
2021/03/07 03:48:13;;;;;;;12.40;5.20;;;1.10;90.70;;;;;;5077199;28;20068;-53
2021/03/07 03:50:41;;;;;;;8.13;5.33;;;1.10;90.70;;;;;;5074372;28;20491;-54
2021/03/07 03:53:17;;;;;;;10.88;5.30;;;1.10;90.70;;;;;;5073489;28;20794;-54
2021/03/07 03:55:47;;;;;;;14.73;5.60;;;1.20;90.80;;;;;;5071380;28;20043;-54
2021/03/07 03:58:14;;;;;;;13.77;5.30;;;1.20;90.80;;;;;;5073918;28;20040;-54
2021/03/07 04:00:43;;;;;;;13.00;5.50;;;1.20;90.90;;;;;;5076527;28;20135;-53
2021/03/07 04:03:13;;;;;;;9.02;5.03;;;1.30;90.90;;;;;;5069149;28;20029;-54
2021/03/07 04:05:44;;;;;;;11.23;4.95;;;1.30;90.90;;;;;;5070730;28;20040;-54
2021/03/07 04:08:10;;;;;;;12.52;5.45;;;1.30;91.00;;;;;;5073665;28;20036;-51
2021/03/07 04:10:36;;;;;;;9.15;4.90;;;1.30;90.90;;;;;;5071082;28;20469;-54
2021/03/07 04:13:03;;;;;;;15.18;5.47;;;1.30;90.80;;;;;;5069112;28;20044;-52
2021/03/07 04:15:30;;;;;;;11.07;5.75;;;1.30;90.80;;;;;;5068300;28;20374;-55
2021/03/07 04:17:57;;;;;;;13.10;6.00;;;1.40;90.90;;;;;;5078871;28;20447;-53
2021/03/07 04:20:28;;;;;;;11.98;5.45;;;1.30;90.80;;;;;;5074012;28;20067;-54
2021/03/07 04:22:54;;;;;;;7.78;4.70;;;1.30;90.80;;;;;;5072643;28;20040;-56
2021/03/07 04:25:20;;;;;;;10.48;5.30;;;1.30;90.80;;;;;;5072159;28;20063;-52
2021/03/07 04:27:47;;;;;;;12.05;5.15;;;1.40;90.90;;;;;;5073387;28;20048;-54
2021/03/07 04:30:14;;;;;;;11.60;4.72;;;1.40;91.00;;;;;;5068101;28;20036;-54
2021/03/07 04:32:41;;;;;;;10.38;4.55;;;1.40;90.90;;;;;;5069384;28;20769;-54
2021/03/07 04:35:10;;;;;;;10.73;5.05;;;1.40;90.80;;;;;;5073067;28;20515;-51
2021/03/07 04:37:37;;;;;;;9.48;5.03;;;1.30;90.90;;;;;;5073523;28;20036;-53
2021/03/07 04:40:03;;;;;;;9.65;5.18;;;1.40;90.80;;;;;;5073669;28;20040;-51
2021/03/07 04:42:29;;;;;;;10.85;5.30;;;1.40;91.10;;;;;;5071360;28;20043;-54
2021/03/07 04:44:55;;;;;;;14.63;4.65;;;1.40;90.90;;;;;;5072635;28;20036;-55
2021/03/07 04:47:21;;;;;;;11.23;5.85;;;1.40;90.80;;;;;;5073378;28;20069;-53
2021/03/07 04:49:46;;;;;;;10.35;5.05;;;1.40;90.90;;;;;;5078044;28;20040;-53
2021/03/07 04:52:12;;;;;;;11.55;5.10;;;1.40;91.00;;;;;;5073243;28;20036;-53
2021/03/07 04:54:38;;;;;;;15.60;5.15;;;1.40;91.20;;;;;;5071958;28;20119;-54
2021/03/07 04:57:05;;;;;;;9.60;5.57;;;1.50;91.00;;;;;;5070456;28;20199;-54
2021/03/07 04:59:31;;;;;;;12.27;5.28;;;1.50;91.10;;;;;;5073347;28;20103;-56
2021/03/07 05:01:57;;;;;;;8.95;4.70;;;1.50;91.00;;;;;;5072868;28;20040;-55
2021/03/07 05:04:24;;;;;;;13.25;4.90;;;1.50;91.00;;;;;;5069912;28;20390;-54
2021/03/07 05:06:50;;;;;;;11.00;5.22;;;1.50;91.10;;;;;;5070473;28;20044;-55
2021/03/07 05:09:16;;;;;;;10.50;4.78;;;1.50;91.30;;;;;;5068754;28;20044;-54
2021/03/07 05:11:42;;;;;;;12.73;5.45;;;1.60;91.20;;;;;;5071201;28;20550;-53
2021/03/07 05:14:14;;;;;;;10.82;5.53;;;1.60;91.20;;;;;;5071820;28;20068;-52
2021/03/07 05:16:39;;;;;;;11.63;5.03;;;1.60;91.10;;;;;;5075851;28;20193;-51
2021/03/07 05:19:05;;;;;;;9.52;5.10;;;1.70;91.10;;;;;;5071048;28;20540;-54
2021/03/07 05:21:31;;;;;;;8.45;5.25;;;1.70;91.10;;;;;;5073977;28;20634;-51
2021/03/07 05:24:00;;;;;;;12.35;4.93;;;1.70;91.10;;;;;;5072025;28;20085;-55
2021/03/07 05:26:27;;;;;;;9.32;5.00;;;1.70;91.00;;;;;;5072439;28;20045;-53
2021/03/07 05:28:53;;;;;;;8.07;4.85;;;1.80;90.90;;;;;;5073672;28;20045;-50
2021/03/07 05:31:18;;;;;;;11.38;4.95;;;1.80;90.80;;;;;;5069536;28;20036;-55
2021/03/07 05:33:44;;;;;;;10.35;5.30;;;1.80;90.80;;;;;;5068789;28;20124;-52
2021/03/07 05:36:10;;;;;;;9.00;5.10;;;1.80;90.80;;;;;;5069283;28;20047;-55
2021/03/07 05:38:38;;;;;;;9.63;5.97;;;1.80;90.90;;;;;;5067343;28;20475;-54
2021/03/07 05:41:04;;;;;;;9.95;5.93;;;1.90;90.80;;;;;;5072371;28;20554;-52
2021/03/07 05:43:30;;;;;;;9.98;5.50;;;1.90;90.80;;;;;;5071128;28;20071;-53
2021/03/07 05:45:56;;;;;;;11.13;5.80;;;1.90;90.80;;;;;;5078673;28;20454;-54
2021/03/07 05:48:21;;;;;;;9.70;5.43;;;1.90;90.90;;;;;;5072931;28;20032;-53
2021/03/07 05:50:47;;;;;;;10.10;5.40;;;1.90;90.80;;;;;;5078264;28;20052;-55
2021/03/07 05:53:13;;;;;;;11.07;5.68;;;1.90;90.80;;;;;;5070734;28;20037;-53
2021/03/07 05:55:39;;;;;;;8.82;5.28;;;2.00;90.80;;;;;;5068230;28;20090;-52
2021/03/07 05:58:06;;;;;;;8.13;5.47;;;2.10;90.70;;;;;;5068614;28;20101;-54
2021/03/07 06:00:32;;;;;;;13.70;5.65;;;2.00;90.60;;;;;;5068853;28;20047;-53
2021/03/07 06:02:58;;;;;;;10.82;5.75;;;2.00;90.60;;;;;;5071699;28;20082;-53
2021/03/07 06:05:24;;;;;;;12.15;5.30;;;2.00;90.60;;;;;;5073743;28;20036;-55
2021/03/07 06:07:50;;;;;;;11.10;5.07;;;2.00;90.60;;;;;;5072875;28;21147;-51
2021/03/07 06:10:23;;;;;;;10.73;4.90;;;2.00;90.60;;;;;;5070103;28;20044;-55
2021/03/07 06:13:09;;;;;;;11.65;5.32;;;2.00;90.50;;;;;;5071072;28;20028;-54
2021/03/07 06:15:40;;;;;;;5.40;4.03;;;2.00;90.50;;;;;;5066673;28;20445;-51
2021/03/07 06:18:20;;;;;;;6.65;4.53;;;2.00;90.50;;;;;;5071243;28;20152;-53
2021/03/07 06:20:48;;;;;;;6.18;4.07;;;2.00;90.20;;;;;;5071543;28;20064;-52
2021/03/07 06:23:14;;;;;;;9.18;4.50;;;2.00;90.20;;;;;;5067946;28;20098;-53
2021/03/07 06:25:45;;;;;;;8.00;4.40;;;2.10;90.10;;;;;;5073232;28;20056;-54
2021/03/07 06:28:21;;;;;;;8.50;4.20;;;2.10;90.20;;;;;;5069706;28;20416;-56
2021/03/07 06:30:47;;;;;;;6.25;4.05;;;2.10;90.10;;;;;;5067201;28;20125;-53
2021/03/07 06:33:31;;;;;;;7.88;3.80;;;2.10;90.00;;;;;;5071144;28;20480;-54
2021/03/07 06:36:17;;;;;;;8.32;3.75;;;2.10;90.00;;;;;;5070988;28;20045;-52
2021/03/07 06:38:47;;;;;;;7.80;3.90;;;2.20;89.90;;;;;;5083516;28;20508;-54
2021/03/07 06:41:27;;;;;;;7.35;3.63;;;2.20;89.50;;;;;;5079111;28;20047;-55
2021/03/07 06:44:15;;;;;;;6.47;3.90;;;2.20;89.40;;;;;;5075652;28;20044;-54
2021/03/07 06:46:43;;;;;;;7.35;3.75;;;2.20;89.90;;;;;;5068260;28;20045;-55
2021/03/07 06:49:25;;;;;;;8.45;3.42;;;2.20;89.10;;;;;;5074723;28;20101;-56
2021/03/07 06:51:51;;;;;;;8.90;3.58;;;2.30;88.90;;;;;;5064938;28;20093;-51
2021/03/07 06:54:20;;;;;;;5.18;3.22;;;2.30;88.80;;;;;;5076285;28;20059;-54
2021/03/07 06:56:48;;;;;;;6.47;3.40;;;2.30;88.70;;;;;;5072161;28;20405;-53
2021/03/07 06:59:25;;;;;;;5.68;3.45;;;2.40;88.50;;;;;;5075617;28;20101;-54
2021/03/07 07:01:55;;;;;;;6.32;3.30;;;2.40;88.60;;;;;;5067919;28;20455;-54
2021/03/07 07:04:22;;;;;;;10.05;3.47;;;2.40;88.50;;;;;;5069742;28;20037;-55
2021/03/07 07:07:07;;;;;;;6.85;3.53;;;2.50;88.40;;;;;;5070553;28;20052;-56
2021/03/07 07:09:34;;;;;;;5.35;3.10;;;2.50;88.40;;;;;;5061191;28;20036;-51
2021/03/07 07:12:01;;;;;;;6.07;2.67;;;2.50;88.30;;;;;;5070268;28;20036;-56
2021/03/07 07:14:40;;;;;;;5.40;2.80;;;2.50;87.90;;;;;;5069390;28;20040;-54
2021/03/07 07:17:11;;;;;;;6.63;2.88;;;2.60;87.90;;;;;;5069394;28;20119;-55
2021/03/07 07:19:41;;;;;;;7.97;2.75;;;2.60;87.80;;;;;;5069175;28;20045;-55
2021/03/07 07:22:08;;;;;;;5.00;2.72;;;2.60;87.60;;;;;;5070251;28;20043;-55
2021/03/07 07:24:37;;;;;;;5.82;2.80;;;2.60;87.30;;;;;;5069397;28;20064;-54
2021/03/07 07:27:04;;;;;;;4.28;2.30;;;2.70;87.30;;;;;;5065800;28;20051;-53
2021/03/07 07:29:30;;;;;;;4.57;2.55;;;2.70;86.90;;;;;;5070580;28;20111;-54
2021/03/07 07:31:59;;;;;;;5.13;2.65;;;2.70;86.70;;;;;;5069666;28;20041;-54
2021/03/07 07:34:43;;;;;;;7.00;2.70;;;2.80;86.60;;;;;;5065124;28;20041;-55
2021/03/07 07:37:13;;;;;;;3.80;2.60;;;2.80;86.10;;;;;;5064051;28;20028;-57
2021/03/07 07:39:40;;;;;;;7.43;3.15;;;2.90;86.40;;;;;;5068708;28;20042;-57
2021/03/07 07:42:20;;;;;;;3.92;2.28;;;2.90;86.50;;;;;;5070901;28;20044;-57
2021/03/07 07:44:47;;;;;;;6.22;2.60;;;3.00;86.50;;;;;;5051752;28;20036;-57
2021/03/07 07:47:13;;;;;;;6.93;2.60;;;3.00;86.30;;;;;;5070164;28;20048;-56
2021/03/07 07:49:47;;;;;;;6.22;2.90;;;3.10;86.10;;;;;;5067562;28;20052;-56
2021/03/07 07:52:30;;;;;;;6.82;2.65;;;3.10;86.20;;;;;;5066852;28;20105;-56
2021/03/07 07:55:11;;;;;;;3.90;2.55;;;3.10;86.00;;;;;;5051685;28;20041;-57
2021/03/07 07:57:42;;;;;;;6.78;2.70;;;3.10;85.90;;;;;;5075514;28;20115;-55
2021/03/07 08:00:17;;;;;;;4.63;2.65;;;3.10;85.70;;;;;;5070135;28;20481;-58
2021/03/07 08:02:47;;;;;;;4.30;2.90;;;3.20;85.80;;;;;;5068165;28;20036;-57
2021/03/07 08:05:26;;;;;;;4.97;2.70;;;3.10;85.50;;;;;;5069047;28;20040;-56
2021/03/07 08:08:02;;;;;;;6.63;2.58;;;3.20;85.90;;;;;;5059709;28;20114;-57
2021/03/07 08:10:40;;;;;;;7.20;2.97;;;3.20;86.30;;;;;;5068932;28;20405;-56
2021/03/07 08:13:10;;;;;;;4.57;3.08;;;3.30;86.30;;;;;;5067070;28;20437;-57
2021/03/07 08:15:44;;;;;;;6.28;2.90;;;3.30;86.20;;;;;;5069727;28;20112;-57
2021/03/07 08:18:11;;;;;;;6.60;2.90;;;3.30;86.00;;;;;;5063285;28;20068;-56
2021/03/07 08:20:44;;;;;;;5.50;2.90;;;3.30;86.10;;;;;;5068063;28;20527;-57
2021/03/07 08:23:11;;;;;;;11.20;3.30;;;3.30;86.30;;;;;;5062925;28;20109;-55
2021/03/07 08:25:46;;;;;;;5.88;3.15;;;3.30;86.30;;;;;;5069233;28;20138;-56
2021/03/07 08:28:31;;;;;;;4.38;2.70;;;3.40;86.30;;;;;;5064977;28;20065;-56
2021/03/07 08:31:04;;;;;;;4.60;2.45;;;3.40;86.50;;;;;;5072597;28;20134;-54
2021/03/07 08:33:32;;;;;;;4.22;2.58;;;3.40;86.20;;;;;;5070048;28;20047;-56
2021/03/07 08:36:19;;;;;;;5.72;2.78;;;3.40;85.90;;;;;;5067346;28;20057;-56
2021/03/07 08:38:54;;;;;;;4.65;2.80;;;3.40;86.00;;;;;;5068383;28;20048;-56
2021/03/07 08:41:52;;;;;;;6.35;3.17;;;3.40;86.10;;;;;;5064920;28;20090;-55
2021/03/07 08:44:18;;;;;;;4.07;2.70;;;3.40;86.50;;;;;;5073513;28;20047;-56
2021/03/07 08:46:46;;;;;;;4.07;2.45;;;3.50;86.60;;;;;;5068894;28;20036;-55
2021/03/07 08:49:17;;;;;;;3.85;2.53;;;3.50;86.40;;;;;;5073706;28;20068;-55
2021/03/07 08:51:48;;;;;;;5.82;2.95;;;3.50;86.20;;;;;;5069959;28;20043;-54
2021/03/07 08:54:22;;;;;;;4.82;2.35;;;3.60;86.00;;;;;;5070465;28;20119;-54
2021/03/07 08:56:52;;;;;;;7.00;2.88;;;3.60;85.80;;;;;;5072390;28;20135;-55
2021/03/07 08:59:24;;;;;;;4.55;2.58;;;3.60;85.60;;;;;;5074328;28;20436;-55
2021/03/07 09:01:51;;;;;;;5.88;2.83;;;3.60;85.50;;;;;;5070444;28;20161;-56
2021/03/07 09:04:17;;;;;;;5.55;2.50;;;3.60;85.20;;;;;;5067182;28;20056;-55
2021/03/07 09:06:44;;;;;;;5.07;2.45;;;3.70;85.20;;;;;;5072617;28;20045;-54
2021/03/07 09:09:21;;;;;;;8.00;2.95;;;3.70;85.00;;;;;;5075381;28;20458;-55
2021/03/07 09:12:19;;;;;;;7.15;2.90;;;3.80;84.70;;;;;;5071832;28;20094;-55
2021/03/07 09:14:47;;;;;;;5.00;2.65;;;3.80;84.20;;;;;;5049603;28;20194;-55
2021/03/07 09:17:22;;;;;;;6.00;3.22;;;3.90;84.30;;;;;;5059897;28;20514;-56
2021/03/07 09:19:48;;;;;;;7.25;3.00;;;3.90;83.90;;;;;;5055758;28;20139;-55
2021/03/07 09:22:15;;;;;;;5.55;3.00;;;3.90;83.90;;;;;;5070640;28;20108;-54
2021/03/07 09:24:53;;;;;;;5.93;3.20;;;3.90;83.90;;;;;;5078310;28;20530;-55
2021/03/07 09:27:22;;;;;;;8.68;3.42;;;4.00;83.80;;;;;;5070740;28;20066;-53
2021/03/07 09:30:14;;;;;;;8.52;3.10;;;4.00;83.60;;;;;;5055961;28;20052;-56
2021/03/07 09:32:40;;;;;;;7.22;3.95;;;4.10;83.30;;;;;;5065820;28;20416;-56
2021/03/07 09:35:34;;;;;;;6.53;3.13;;;4.10;83.30;;;;;;5074826;28;20046;-56
2021/03/07 09:38:08;;;;;;;8.45;3.83;;;4.20;82.70;;;;;;5071737;28;20045;-56
2021/03/07 09:40:35;;;;;;;5.55;3.13;;;4.20;83.00;;;;;;5071268;28;20135;-55
2021/03/07 09:43:04;;;;;;;6.45;3.40;;;4.30;82.70;;;;;;5070194;28;20047;-55
2021/03/07 09:45:30;;;;;;;7.25;3.17;;;4.30;82.10;;;;;;5064172;28;20040;-56
2021/03/07 09:47:57;;;;;;;5.55;3.55;;;4.40;81.80;;;;;;5072156;28;20059;-52
2021/03/07 09:50:23;;;;;;;9.52;4.18;;;4.40;81.20;;;;;;5073972;28;20047;-54
2021/03/07 09:52:50;;;;;;;8.30;3.90;;;4.40;81.60;;;;;;5074906;28;20154;-55
2021/03/07 09:55:31;;;;;;;7.60;3.85;;;4.50;80.60;;;;;;5076978;28;20082;-56
2021/03/07 09:57:59;;;;;;;8.60;3.72;;;4.50;80.30;;;;;;5064052;28;20167;-56
2021/03/07 10:00:25;;;;;;;8.75;4.22;;;4.50;79.10;;;;;;5075261;28;20124;-56
2021/03/07 10:02:51;;;;;;;7.78;4.10;;;4.50;78.60;;;;;;5074032;28;20077;-56
2021/03/07 10:05:17;;;;;;;5.65;3.70;;;4.50;78.60;;;;;;5066871;28;20574;-55
2021/03/07 10:07:43;;;;;;;5.90;3.58;;;4.50;78.10;;;;;;5064801;28;20044;-55
2021/03/07 10:10:20;;;;;;;10.23;4.25;;;4.60;78.30;;;;;;5065614;28;20402;-53
2021/03/07 10:12:54;;;;;;;10.48;4.47;;;4.60;78.30;;;;;;5062583;28;20040;-56
2021/03/07 10:15:28;;;;;;;9.23;4.00;;;4.60;78.00;;;;;;5067076;28;20032;-56
2021/03/07 10:18:03;;;;;;;7.40;4.80;;;4.70;77.80;;;;;;5056100;28;20083;-56
2021/03/07 10:20:35;;;;;;;9.57;4.75;;;4.70;77.70;;;;;;5063142;28;20131;-56
2021/03/07 10:23:01;;;;;;;11.57;5.55;;;4.80;76.90;;;;;;5057917;28;20044;-56
2021/03/07 10:25:32;;;;;;;12.23;6.47;;;4.80;76.20;;;;;;5060943;28;20513;-56
2021/03/07 10:28:07;;;;;;;10.98;6.82;;;4.80;75.80;;;;;;5065750;28;20044;-56
2021/03/07 10:30:40;;;;;;;11.40;6.80;;;4.80;75.00;;;;;;5061522;28;20037;-55
2021/03/07 10:33:12;;;;;;;14.50;6.75;;;4.80;74.90;;;;;;5059220;28;20040;-56
2021/03/07 10:36:19;;;;;;;11.40;7.00;;;4.80;75.00;;;;;;5072336;28;20055;-56
2021/03/07 10:38:50;;;;;;;14.10;7.20;;;4.80;75.00;;;;;;5014149;28;20042;-58
2021/03/07 10:41:25;;;;;;;11.07;7.38;;;4.90;74.90;;;;;;5049249;28;20401;-56
2021/03/07 10:43:53;;;;;;;14.55;8.32;;;4.90;74.90;;;;;;5054390;28;20109;-55
2021/03/07 10:46:27;;;;;;;11.05;7.38;;;5.40;75.00;;;;;;5058594;28;20485;-56
2021/03/07 10:48:57;;;;;;;13.85;8.05;;;5.00;74.60;;;;;;5056368;28;20106;-56
2021/03/07 10:51:23;;;;;;;13.73;8.82;;;5.00;73.10;;;;;;5057215;28;20041;-55
2021/03/07 10:53:50;;;;;;;12.48;8.20;;;5.00;73.00;;;;;;5060401;28;20033;-56
2021/03/07 10:56:16;;;;;;;15.82;9.63;;;5.10;71.80;;;;;;5060227;28;20063;-53
2021/03/07 10:58:41;;;;;;;18.13;9.55;;;5.20;72.80;;;;;;5059603;28;20481;-55
2021/03/07 11:01:11;;;;;;;17.38;9.88;;;5.30;71.60;;;;;;5062448;28;20051;-54
2021/03/07 11:03:37;;;;;;;15.75;9.27;;;5.30;71.70;;;;;;5062377;28;20051;-55
2021/03/07 11:06:02;;;;;;;16.38;9.65;;;5.40;70.60;;;;;;5065831;28;20040;-53
2021/03/07 11:08:28;;;;;;;14.50;9.23;;;5.50;68.90;;;;;;5068887;28;20369;-53
2021/03/07 11:10:54;;;;;;;15.52;8.95;;;5.50;65.90;;;;;;5071788;28;20047;-54
2021/03/07 11:13:20;;;;;;;15.27;8.40;;;5.60;67.30;;;;;;5069089;28;20040;-56
2021/03/07 11:15:45;;;;;;;14.98;9.05;;;5.60;67.10;;;;;;5070820;28;20055;-56
2021/03/07 11:18:12;;;;;;;12.00;7.63;;;5.60;67.80;;;;;;5070417;28;20040;-53
2021/03/07 11:20:37;;;;;;;14.68;8.73;;;5.60;68.10;;;;;;5069984;28;20032;-55
2021/03/07 11:23:03;;;;;;;15.93;9.35;;;5.70;68.40;;;;;;5080719;28;20097;-54
2021/03/07 11:25:29;;;;;;;14.77;9.13;;;5.80;67.80;;;;;;5078791;28;20037;-54
2021/03/07 11:27:55;;;;;;;15.60;9.05;;;5.80;66.70;;;;;;5057491;28;20134;-54
2021/03/07 11:30:21;;;;;;;14.52;9.20;;;5.80;64.80;;;;;;5052808;28;20523;-54
2021/03/07 11:32:47;;;;;;;14.27;9.00;;;5.80;65.00;;;;;;5060841;28;20044;-52
2021/03/07 11:35:13;;;;;;;15.10;8.50;;;5.80;65.30;;;;;;5061570;28;20105;-53
2021/03/07 11:37:38;;;;;;;16.95;9.43;;;5.80;65.30;;;;;;5060017;28;20424;-54
2021/03/07 11:40:05;;;;;;;14.65;8.77;;;5.80;65.60;;;;;;5074126;28;20486;-55
2021/03/07 11:42:31;;;;;;;15.27;8.60;;;5.80;65.70;;;;;;5074513;28;20284;-55
2021/03/07 11:44:57;;;;;;;15.82;9.20;;;5.80;66.70;;;;;;5073178;28;20123;-55
2021/03/07 11:47:23;;;;;;;17.25;9.30;;;5.90;66.90;;;;;;5077261;28;20468;-53
2021/03/07 11:49:48;;;;;;;14.55;9.35;;;5.60;66.50;;;;;;5064188;28;20089;-52
2021/03/07 11:52:14;;;;;;;15.05;9.20;;;5.90;65.60;;;;;;5064778;28;20044;-56
2021/03/07 11:54:40;;;;;;;14.48;9.35;;;5.90;66.10;;;;;;5062368;28;20048;-53
2021/03/07 11:57:07;;;;;;;16.08;9.32;;;5.90;65.40;;;;;;5068995;28;20292;-54
2021/03/07 11:59:33;;;;;;;14.00;9.38;;;5.90;64.80;;;;;;5059120;28;20051;-55
2021/03/07 12:02:00;;;;;;;14.73;8.93;;;5.90;65.00;;;;;;5071386;28;20447;-51
2021/03/07 12:04:25;;;;;;;15.23;10.18;;;6.00;64.50;;;;;;5064193;28;20068;-54
2021/03/07 12:06:51;;;;;;;14.88;10.13;;;6.00;64.90;;;;;;5065319;28;20051;-54
2021/03/07 12:09:17;;;;;;;16.42;9.93;;;5.90;63.80;;;;;;5068858;28;20036;-53
2021/03/07 12:11:43;;;;;;;13.23;8.35;;;5.90;64.10;;;;;;5079514;28;20040;-54
2021/03/07 12:14:09;;;;;;;13.75;8.65;;;5.90;65.10;;;;;;5075829;28;20068;-55
2021/03/07 12:16:34;;;;;;;14.50;8.85;;;6.00;65.10;;;;;;5082478;28;20621;-53
2021/03/07 12:19:00;;;;;;;13.20;8.68;;;6.00;63.90;;;;;;5075778;28;20106;-52
2021/03/07 12:21:26;;;;;;;15.00;9.30;;;6.00;63.80;;;;;;5071220;28;20155;-54
2021/03/07 12:23:52;;;;;;;15.35;9.23;;;6.10;64.10;;;;;;5067537;28;20174;-54
2021/03/07 12:26:18;;;;;;;13.02;8.50;;;6.10;64.60;;;;;;5070398;28;20142;-52
2021/03/07 12:28:44;;;;;;;15.40;9.25;;;6.20;64.50;;;;;;5071173;28;20040;-54
2021/03/07 12:31:12;;;;;;;13.13;8.63;;;6.20;63.60;;;;;;5077620;28;20837;-55
2021/03/07 12:33:38;;;;;;;15.38;9.05;;;6.40;63.70;;;;;;5081719;28;20180;-54
2021/03/07 12:36:05;;;;;;;14.20;8.45;;;6.30;63.90;;;;;;5067304;28;20080;-49
2021/03/07 12:38:30;;;;;;;13.27;9.00;;;6.30;64.50;;;;;;5076766;28;20071;-53
2021/03/07 12:40:56;;;;;;;17.65;8.95;;;6.30;64.20;;;;;;5061637;28;20097;-52
2021/03/07 12:43:22;;;;;;;17.42;9.15;;;6.20;64.20;;;;;;5073899;28;20108;-52
2021/03/07 12:45:48;;;;;;;12.93;8.20;;;6.20;64.40;;;;;;5071639;28;20576;-52
2021/03/07 12:48:14;;;;;;;13.48;8.70;;;6.20;65.00;;;;;;5066883;28;20033;-54
2021/03/07 12:50:40;;;;;;;14.73;8.52;;;6.20;65.20;;;;;;5060763;28;20064;-52
2021/03/07 12:53:06;;;;;;;15.65;8.23;;;6.20;64.20;;;;;;5075780;28;20063;-53
2021/03/07 12:55:32;;;;;;;15.00;8.63;;;6.30;64.20;;;;;;5071373;28;20581;-50
2021/03/07 12:57:58;;;;;;;16.38;8.55;;;6.30;64.30;;;;;;5067646;28;20087;-52
2021/03/07 13:00:25;;;;;;;18.10;9.40;;;6.40;64.70;;;;;;5075146;28;20043;-53
2021/03/07 13:02:50;;;;;;;16.05;8.65;;;6.40;64.50;;;;;;5070709;28;20048;-53